createdAt,value
2022-08-04T00:00:08.683Z,22.47
2022-08-04T00:01:23.518Z,22.52
2022-08-04T00:02:47.711Z,22.56
2022-08-04T00:03:56.548Z,22.62
2022-08-04T00:05:05.500Z,22.64
2022-08-04T00:06:13.805Z,22.58
2022-08-04T00:07:58.455Z,22.56
2022-08-04T00:09:07.799Z,22.58
2022-08-04T00:10:11.107Z,22.61
2022-08-04T00:11:21.601Z,22.63
2022-08-04T00:12:29.389Z,22.65
2022-08-04T00:13:39.506Z,22.65
2022-08-04T00:15:04.544Z,22.68
2022-08-04T00:16:10.291Z,22.71
2022-08-04T00:17:14.403Z,22.74
2022-08-04T00:18:19.416Z,22.74
2022-08-04T00:19:28.317Z,22.75
2022-08-04T00:20:33.405Z,22.78
2022-08-04T00:21:39.299Z,22.82
2022-08-04T00:22:45.152Z,22.77
2022-08-04T00:24:10.427Z,22.76
2022-08-04T00:25:12.436Z,22.78
2022-08-04T00:26:16.679Z,22.82
2022-08-04T00:27:19.101Z,22.80
2022-08-04T00:28:21.645Z,22.82
2022-08-04T00:29:24.099Z,22.87
2022-08-04T00:30:26.915Z,22.65
2022-08-04T00:31:33.361Z,22.57
2022-08-04T00:32:53.279Z,22.59
2022-08-04T00:33:56.275Z,22.54
2022-08-04T00:34:59.391Z,22.46
2022-08-04T00:36:02.619Z,22.47
2022-08-04T00:37:06.546Z,22.19
2022-08-04T00:38:09.869Z,22.08
2022-08-04T00:39:14.404Z,22.01
2022-08-04T00:40:24.090Z,21.95
2022-08-04T00:42:10.931Z,22.00
2022-08-04T00:43:35.207Z,22.01
2022-08-04T00:45:13.161Z,22.03
2022-08-04T00:46:39.404Z,22.07
2022-08-04T00:48:02.814Z,22.05
2022-08-04T00:49:17.038Z,22.14
2022-08-04T00:50:29.021Z,22.22
2022-08-04T00:52:31.759Z,22.18
2022-08-04T00:53:54.259Z,22.26
2022-08-04T00:55:08.601Z,22.30
2022-08-04T00:56:57.933Z,22.34
2022-08-04T00:58:18.899Z,22.36
2022-08-04T00:59:41.678Z,22.38
2022-08-04T01:01:05.602Z,22.43
2022-08-04T01:02:13.392Z,22.48
2022-08-04T01:03:35.578Z,22.50
2022-08-04T01:04:49.596Z,22.53
2022-08-04T01:06:06.207Z,22.52
2022-08-04T01:07:11.129Z,22.54
2022-08-04T01:08:25.195Z,22.44
2022-08-04T01:09:52.331Z,22.09
2022-08-04T01:11:03.155Z,22.10
2022-08-04T01:12:23.609Z,21.87
2022-08-04T01:14:08.940Z,21.80
2022-08-04T01:15:57.190Z,21.97
2022-08-04T01:17:19.222Z,21.89
2022-08-04T01:18:27.478Z,22.00
2022-08-04T01:20:13.974Z,21.73
2022-08-04T01:21:42.968Z,21.74
2022-08-04T01:23:10.498Z,21.77
2022-08-04T01:24:18.438Z,21.78
2022-08-04T01:25:23.449Z,21.86
2022-08-04T01:26:53.770Z,21.76
2022-08-04T01:28:30.968Z,21.93
2022-08-04T01:29:55.879Z,21.70
2022-08-04T01:31:21.966Z,21.75
2022-08-04T01:32:37.554Z,21.54
2022-08-04T01:34:03.434Z,21.61
2022-08-04T01:35:29.672Z,21.66
2022-08-04T01:36:53.509Z,21.63
2022-08-04T01:38:35.207Z,21.78
2022-08-04T01:39:49.709Z,21.64
2022-08-04T01:40:55.166Z,21.68
2022-08-04T01:41:58.782Z,21.80
2022-08-04T01:43:03.478Z,21.77
2022-08-04T01:44:07.313Z,21.59
2022-08-04T01:45:12.162Z,21.39
2022-08-04T01:46:17.503Z,21.45
2022-08-04T01:47:21.738Z,21.46
2022-08-04T01:48:26.074Z,21.55
2022-08-04T01:49:40.059Z,21.29
2022-08-04T01:50:44.692Z,21.29
2022-08-04T01:51:51.061Z,21.31
2022-08-04T01:52:56.107Z,21.24
2022-08-04T01:53:58.601Z,21.28
2022-08-04T01:55:05.048Z,21.32
2022-08-04T01:56:09.354Z,21.23
2022-08-04T01:57:38.850Z,21.21
2022-08-04T01:58:35.425Z,21.19
2022-08-04T01:59:39.405Z,21.06
2022-08-04T02:00:55.943Z,21.11
2022-08-04T02:01:58.789Z,21.06
2022-08-04T02:03:01.253Z,21.04
2022-08-04T02:04:18.777Z,20.94
2022-08-04T02:06:02.341Z,20.93
2022-08-04T02:07:06.847Z,20.93
2022-08-04T02:08:35.902Z,20.82
2022-08-04T02:09:55.057Z,20.84
2022-08-04T02:11:11.819Z,20.73
2022-08-04T02:12:27.395Z,20.68
2022-08-04T02:13:38.573Z,20.67
2022-08-04T02:14:50.929Z,20.78
2022-08-04T02:15:58.255Z,20.86
2022-08-04T02:17:00.598Z,20.96
2022-08-04T02:18:23.306Z,20.93
2022-08-04T02:19:25.744Z,20.99
2022-08-04T02:20:35.800Z,20.90
2022-08-04T02:21:42.637Z,20.88
2022-08-04T02:22:58.305Z,20.93
2022-08-04T02:24:06.552Z,20.84
2022-08-04T02:25:11.217Z,20.89
2022-08-04T02:26:22.669Z,20.87
2022-08-04T02:27:29.832Z,20.88
2022-08-04T02:29:13.450Z,20.84
2022-08-04T02:30:18.466Z,20.85
2022-08-04T02:31:48.171Z,21.02
2022-08-04T02:32:56.773Z,21.14
2022-08-04T02:34:15.011Z,21.11
2022-08-04T02:35:30.034Z,21.03
2022-08-04T02:36:39.321Z,21.11
2022-08-04T02:37:48.224Z,20.93
2022-08-04T02:39:01.041Z,20.94
2022-08-04T02:40:06.490Z,20.79
2022-08-04T02:41:10.816Z,20.85
2022-08-04T02:42:14.968Z,20.79
2022-08-04T02:43:20.119Z,20.67
2022-08-04T02:44:43.455Z,20.89
2022-08-04T02:45:47.985Z,20.82
2022-08-04T02:46:53.156Z,20.64
2022-08-04T02:48:30.344Z,20.66
2022-08-04T02:49:21.987Z,20.79
2022-08-04T02:50:28.518Z,20.89
2022-08-04T02:51:37.920Z,20.98
2022-08-04T02:52:43.444Z,21.00
2022-08-04T02:53:47.341Z,21.02
2022-08-04T02:54:53.581Z,20.93
2022-08-04T02:55:57.613Z,20.89
2022-08-04T02:57:01.294Z,20.86
2022-08-04T02:58:04.426Z,20.89
2022-08-04T02:59:08.751Z,20.84
2022-08-04T03:00:15.817Z,20.74
2022-08-04T03:01:18.285Z,20.64
2022-08-04T03:02:32.784Z,20.68
2022-08-04T03:03:51.466Z,20.65
2022-08-04T03:05:10.590Z,20.68
2022-08-04T03:06:54.361Z,20.71
2022-08-04T03:08:26.973Z,20.72
2022-08-04T03:10:21.426Z,20.52
2022-08-04T03:11:35.629Z,20.44
2022-08-04T03:13:04.958Z,20.34
2022-08-04T03:14:36.377Z,20.39
2022-08-04T03:16:02.536Z,20.51
2022-08-04T03:17:07.692Z,20.59
2022-08-04T03:18:49.331Z,20.61
2022-08-04T03:19:54.168Z,20.37
2022-08-04T03:21:33.272Z,20.22
2022-08-04T03:23:12.937Z,20.20
2022-08-04T03:24:57.866Z,20.30
2022-08-04T03:26:15.150Z,20.38
2022-08-04T03:27:35.810Z,20.37
2022-08-04T03:29:09.733Z,20.34
2022-08-04T03:30:19.623Z,20.45
2022-08-04T03:31:21.908Z,20.42
2022-08-04T03:32:51.756Z,20.48
2022-08-04T03:34:30.797Z,20.39
2022-08-04T03:35:45.111Z,20.28
2022-08-04T03:37:09.107Z,20.28
2022-08-04T03:38:14.097Z,20.26
2022-08-04T03:39:43.557Z,20.27
2022-08-04T03:41:57.391Z,20.30
2022-08-04T03:43:58.699Z,20.41
2022-08-04T03:45:23.495Z,20.42
2022-08-04T03:46:59.788Z,20.46
2022-08-04T03:48:35.286Z,20.38
2022-08-04T03:49:52.515Z,20.28
2022-08-04T03:51:34.900Z,20.28
2022-08-04T03:53:03.120Z,20.18
2022-08-04T03:54:30.527Z,20.15
2022-08-04T03:55:46.511Z,20.11
2022-08-04T03:57:13.503Z,20.16
2022-08-04T03:58:25.423Z,20.17
2022-08-04T03:59:48.657Z,20.23
2022-08-04T04:02:01.584Z,20.41
2022-08-04T04:03:28.500Z,20.10
2022-08-04T04:04:55.258Z,20.14
2022-08-04T04:06:17.332Z,20.17
2022-08-04T04:07:54.308Z,20.28
2022-08-04T04:09:35.520Z,20.26
2022-08-04T04:11:00.829Z,20.38
2022-08-04T04:12:26.694Z,20.48
2022-08-04T04:13:56.591Z,20.28
2022-08-04T04:15:10.689Z,20.32
2022-08-04T04:16:51.524Z,20.48
2022-08-04T04:18:24.412Z,20.60
2022-08-04T04:19:45.398Z,20.72
2022-08-04T04:21:08.747Z,20.80
2022-08-04T04:22:48.463Z,20.93
2022-08-04T04:24:02.850Z,21.01
2022-08-04T04:25:19.396Z,21.03
2022-08-04T04:26:49.262Z,21.08
2022-08-04T04:28:45.898Z,21.29
2022-08-04T04:30:00.618Z,22.43
2022-08-04T04:31:33.771Z,22.86
2022-08-04T04:32:55.044Z,24.83
2022-08-04T04:34:31.463Z,26.62
2022-08-04T04:35:56.034Z,27.54
2022-08-04T04:37:16.796Z,28.03
2022-08-04T04:39:03.972Z,29.06
2022-08-04T04:40:34.425Z,29.65
2022-08-04T04:42:01.655Z,29.62
2022-08-04T04:43:19.117Z,29.93
2022-08-04T04:45:12.524Z,31.18
2022-08-04T04:46:32.155Z,31.80
2022-08-04T04:48:08.726Z,32.34
2022-08-04T04:49:34.020Z,33.24
2022-08-04T04:50:48.381Z,32.91
2022-08-04T04:52:08.964Z,32.79
2022-08-04T04:53:25.621Z,33.16
2022-08-04T04:54:33.736Z,33.70
2022-08-04T04:55:47.814Z,33.93
2022-08-04T04:57:00.776Z,34.30
2022-08-04T04:58:04.678Z,34.24
2022-08-04T04:59:11.912Z,34.34
2022-08-04T05:00:15.218Z,34.75
2022-08-04T05:02:04.245Z,35.85
2022-08-04T05:03:30.058Z,36.64
2022-08-04T05:04:50.896Z,36.62
2022-08-04T05:06:07.792Z,36.72
2022-08-04T05:07:22.430Z,36.40
2022-08-04T05:08:44.929Z,36.08
2022-08-04T05:10:24.800Z,36.35
2022-08-04T05:11:54.334Z,36.27
2022-08-04T05:14:37.037Z,36.23
2022-08-04T05:14:50.129Z,36.09
2022-08-04T05:15:56.147Z,35.89
2022-08-04T05:17:22.126Z,36.30
2022-08-04T05:18:29.726Z,36.07
2022-08-04T05:19:48.940Z,35.72
2022-08-04T05:21:01.450Z,35.65
2022-08-04T05:22:13.906Z,35.79
2022-08-04T05:23:24.714Z,35.74
2022-08-04T05:24:28.838Z,36.44
2022-08-04T05:25:50.114Z,36.64
2022-08-04T05:27:08.526Z,36.37
2022-08-04T05:28:19.579Z,35.95
2022-08-04T05:29:32.007Z,36.09
2022-08-04T05:30:48.522Z,36.96
2022-08-04T05:31:53.592Z,36.73
2022-08-04T05:33:09.805Z,36.02
2022-08-04T05:34:15.722Z,35.82
2022-08-04T05:35:52.148Z,35.93
2022-08-04T05:37:00.085Z,35.83
2022-08-04T05:38:04.116Z,35.93
2022-08-04T05:39:10.144Z,36.47
2022-08-04T05:40:13.063Z,36.91
2022-08-04T05:41:16.000Z,37.18
2022-08-04T05:42:18.327Z,36.60
2022-08-04T05:43:23.795Z,36.41
2022-08-04T05:44:27.955Z,36.82
2022-08-04T05:45:38.983Z,37.45
2022-08-04T05:46:43.857Z,38.06
2022-08-04T05:47:47.704Z,38.13
2022-08-04T05:48:51.690Z,38.58
2022-08-04T05:50:01.501Z,38.36
2022-08-04T05:51:06.240Z,38.10
2022-08-04T05:52:11.198Z,38.11
2022-08-04T05:53:15.649Z,38.66
2022-08-04T05:54:20.960Z,38.56
2022-08-04T05:55:57.397Z,38.60
2022-08-04T05:56:46.559Z,38.13
2022-08-04T05:57:55.388Z,37.91
2022-08-04T05:58:59.739Z,37.37
2022-08-04T06:00:19.844Z,37.75
2022-08-04T06:01:29.418Z,37.74
2022-08-04T06:02:32.551Z,37.15
2022-08-04T06:03:36.090Z,36.98
2022-08-04T06:04:41.757Z,37.01
2022-08-04T06:05:45.691Z,37.61
2022-08-04T06:06:49.045Z,38.47
2022-08-04T06:08:12.650Z,38.05
2022-08-04T06:09:13.701Z,37.08
2022-08-04T06:10:16.982Z,37.39
2022-08-04T06:11:21.030Z,37.50
2022-08-04T06:12:49.616Z,37.01
2022-08-04T06:13:56.654Z,36.76
2022-08-04T06:15:01.026Z,37.02
2022-08-04T06:16:06.606Z,37.33
2022-08-04T06:18:33.924Z,36.98
2022-08-04T06:20:02.597Z,36.60
2022-08-04T06:20:19.388Z,37.84
2022-08-04T06:21:28.345Z,38.11
2022-08-04T06:22:33.286Z,38.72
2022-08-04T06:24:00.845Z,38.97
2022-08-04T06:25:04.547Z,39.86
2022-08-04T06:26:10.070Z,39.58
2022-08-04T06:27:14.224Z,39.29
2022-08-04T06:28:18.218Z,38.53
2022-08-04T06:29:34.533Z,37.67
2022-08-04T06:30:38.070Z,37.72
2022-08-04T06:32:27.436Z,37.63
2022-08-04T06:33:24.157Z,36.97
2022-08-04T06:34:27.981Z,37.75
2022-08-04T06:35:31.301Z,37.98
2022-08-04T06:36:38.012Z,38.64
2022-08-04T06:37:42.943Z,39.41
2022-08-04T06:38:47.115Z,39.22
2022-08-04T06:40:15.475Z,40.16
2022-08-04T06:41:29.002Z,40.06
2022-08-04T06:42:31.590Z,39.49
2022-08-04T06:43:43.029Z,39.04
2022-08-04T06:44:49.909Z,38.62
2022-08-04T06:45:55.588Z,38.40
2022-08-04T06:46:58.544Z,38.78
2022-08-04T06:48:01.674Z,38.63
2022-08-04T06:49:04.805Z,39.12
2022-08-04T06:51:29.205Z,38.86
2022-08-04T06:51:39.932Z,39.03
2022-08-04T06:52:49.405Z,38.80
2022-08-04T06:53:52.394Z,39.30
2022-08-04T06:54:55.642Z,39.53
2022-08-04T06:56:00.999Z,39.69
2022-08-04T06:57:03.706Z,39.34
2022-08-04T06:58:07.359Z,40.32
2022-08-04T06:59:12.902Z,40.37
2022-08-04T07:00:17.520Z,39.50
2022-08-04T07:01:21.404Z,39.02
2022-08-04T07:02:27.419Z,38.28
2022-08-04T07:03:31.098Z,38.63
2022-08-04T07:04:33.964Z,38.74
2022-08-04T07:05:36.752Z,38.82
2022-08-04T07:06:39.102Z,37.18
2022-08-04T07:07:57.305Z,37.71
2022-08-04T07:09:00.871Z,37.86
2022-08-04T07:10:04.903Z,36.41
2022-08-04T07:11:08.931Z,36.44
2022-08-04T07:12:11.477Z,35.07
2022-08-04T07:13:15.109Z,34.02
2022-08-04T07:14:19.131Z,33.01
2022-08-04T07:15:24.361Z,32.34
2022-08-04T07:16:30.657Z,31.88
2022-08-04T07:17:36.032Z,31.64
2022-08-04T07:18:39.314Z,30.91
2022-08-04T07:19:44.308Z,31.05
2022-08-04T07:20:48.194Z,30.80
2022-08-04T07:22:06.443Z,30.36
2022-08-04T07:23:21.407Z,29.76
2022-08-04T07:24:30.296Z,29.68
2022-08-04T07:26:11.980Z,29.49
2022-08-04T07:27:00.013Z,29.56
2022-08-04T07:28:02.540Z,29.71
2022-08-04T07:29:04.898Z,29.47
2022-08-04T07:30:08.014Z,29.24
2022-08-04T07:31:34.126Z,29.05
2022-08-04T07:32:41.472Z,29.60
2022-08-04T07:33:45.471Z,29.70
2022-08-04T07:35:09.414Z,30.09
2022-08-04T07:36:38.438Z,29.76
2022-08-04T07:37:52.626Z,30.13
2022-08-04T07:38:54.971Z,30.41
2022-08-04T07:39:58.005Z,30.66
2022-08-04T07:41:01.399Z,30.84
2022-08-04T07:42:04.760Z,30.97
2022-08-04T07:43:07.983Z,30.80
2022-08-04T07:44:12.454Z,30.20
2022-08-04T07:45:20.747Z,29.83
2022-08-04T07:46:23.198Z,30.17
2022-08-04T07:47:27.616Z,30.24
2022-08-04T07:48:30.713Z,30.05
2022-08-04T07:49:55.502Z,29.98
2022-08-04T07:50:56.490Z,30.57
2022-08-04T07:51:59.600Z,30.89
2022-08-04T07:53:53.237Z,30.85
2022-08-04T07:54:25.592Z,31.03
2022-08-04T07:55:29.725Z,30.89
2022-08-04T07:56:36.850Z,30.51
2022-08-04T07:57:41.651Z,30.04
2022-08-04T07:58:44.858Z,29.79
2022-08-04T07:59:50.166Z,30.29
2022-08-04T08:00:54.709Z,30.64
2022-08-04T08:02:01.181Z,30.74
2022-08-04T08:03:04.583Z,31.22
2022-08-04T08:04:08.093Z,31.51
2022-08-04T08:05:13.028Z,31.75
2022-08-04T08:06:30.938Z,32.00
2022-08-04T08:07:34.612Z,32.07
2022-08-04T08:08:40.133Z,32.07
2022-08-04T08:09:42.562Z,32.03
2022-08-04T08:10:48.436Z,31.82
2022-08-04T08:12:35.825Z,32.21
2022-08-04T08:13:16.172Z,32.43
2022-08-04T08:14:19.960Z,32.53
2022-08-04T08:15:22.939Z,32.70
2022-08-04T08:16:26.072Z,32.79
2022-08-04T08:17:28.568Z,32.78
2022-08-04T08:18:32.001Z,32.70
2022-08-04T08:19:35.787Z,32.75
2022-08-04T08:20:38.339Z,32.97
2022-08-04T08:21:59.570Z,33.02
2022-08-04T08:23:03.284Z,32.98
2022-08-04T08:24:09.770Z,33.05
2022-08-04T08:25:15.468Z,33.04
2022-08-04T08:26:17.929Z,33.00
2022-08-04T08:27:20.877Z,33.16
2022-08-04T08:28:24.177Z,32.93
2022-08-04T08:29:27.176Z,33.13
2022-08-04T08:30:32.251Z,32.69
2022-08-04T08:31:56.712Z,32.56
2022-08-04T08:32:57.792Z,32.94
2022-08-04T08:34:01.293Z,33.13
2022-08-04T08:35:04.082Z,33.17
2022-08-04T08:36:26.060Z,33.30
2022-08-04T08:37:52.927Z,33.57
2022-08-04T08:39:15.207Z,33.69
2022-08-04T08:40:40.487Z,33.83
2022-08-04T08:41:58.545Z,34.01
2022-08-04T08:44:00.698Z,34.17
2022-08-04T08:45:00.598Z,34.01
2022-08-04T08:46:48.513Z,34.26
2022-08-04T08:48:06.697Z,34.50
2022-08-04T08:50:00.345Z,34.53
2022-08-04T08:51:09.180Z,34.66
2022-08-04T08:53:00.713Z,34.41
2022-08-04T08:54:32.521Z,34.42
2022-08-04T08:55:46.362Z,33.57
2022-08-04T08:57:03.163Z,33.61
2022-08-04T08:58:29.217Z,33.35
2022-08-04T09:00:00.200Z,32.69
2022-08-04T09:01:17.361Z,33.33
2022-08-04T09:02:45.442Z,33.90
2022-08-04T09:04:22.973Z,34.04
2022-08-04T09:05:44.234Z,34.14
2022-08-04T09:07:03.305Z,34.69
2022-08-04T09:08:43.205Z,34.40
2022-08-04T09:09:49.637Z,34.86
2022-08-04T09:11:01.739Z,35.15
2022-08-04T09:12:15.756Z,35.18
2022-08-04T09:13:32.626Z,34.88
2022-08-04T09:14:45.689Z,34.55
2022-08-04T09:16:02.639Z,34.17
2022-08-04T09:17:11.152Z,34.72
2022-08-04T09:18:19.149Z,35.08
2022-08-04T09:19:57.552Z,35.46
2022-08-04T09:21:09.978Z,35.34
2022-08-04T09:22:29.730Z,35.58
2022-08-04T09:23:51.792Z,35.97
2022-08-04T09:25:17.278Z,36.04
2022-08-04T09:26:27.387Z,35.90
2022-08-04T09:27:46.074Z,35.76
2022-08-04T09:29:23.734Z,36.02
2022-08-04T09:30:43.541Z,36.29
2022-08-04T09:32:06.834Z,36.26
2022-08-04T09:33:45.827Z,36.19
2022-08-04T09:35:15.626Z,35.80
2022-08-04T09:36:32.619Z,36.17
2022-08-04T09:37:34.825Z,36.15
2022-08-04T09:39:06.792Z,35.83
2022-08-04T09:40:31.278Z,36.02
2022-08-04T09:42:00.905Z,36.04
2022-08-04T09:43:16.719Z,35.35
2022-08-04T09:44:52.215Z,35.86
2022-08-04T09:46:06.462Z,35.71
2022-08-04T09:47:19.113Z,35.34
2022-08-04T09:48:37.259Z,35.89
2022-08-04T09:50:19.685Z,35.87
2022-08-04T09:51:58.727Z,35.95
2022-08-04T09:53:18.410Z,35.68
2022-08-04T09:54:45.325Z,35.68
2022-08-04T09:56:03.502Z,35.89
2022-08-04T09:57:21.115Z,35.77
2022-08-04T09:58:55.800Z,36.45
2022-08-04T10:00:12.542Z,36.57
2022-08-04T10:01:23.841Z,36.60
2022-08-04T10:02:30.876Z,35.61
2022-08-04T10:03:38.029Z,35.40
2022-08-04T10:04:43.804Z,35.20
2022-08-04T10:06:28.354Z,35.91
2022-08-04T10:07:39.503Z,35.27
2022-08-04T10:09:17.810Z,35.41
2022-08-04T10:10:22.821Z,35.16
2022-08-04T10:11:55.662Z,35.59
2022-08-04T10:13:26.705Z,36.07
2022-08-04T10:15:06.146Z,36.64
2022-08-04T10:16:30.065Z,36.25
2022-08-04T10:17:43.632Z,36.58
2022-08-04T10:19:08.549Z,36.95
2022-08-04T10:20:44.736Z,36.98
2022-08-04T10:22:29.454Z,36.95
2022-08-04T10:23:55.158Z,37.30
2022-08-04T10:25:44.416Z,36.99
2022-08-04T10:27:07.801Z,37.09
2022-08-04T10:28:14.498Z,36.83
2022-08-04T10:29:26.186Z,36.66
2022-08-04T10:30:33.431Z,37.21
2022-08-04T10:31:59.121Z,37.40
2022-08-04T10:33:12.753Z,37.33
2022-08-04T10:34:22.175Z,37.23
2022-08-04T10:35:26.857Z,37.60
2022-08-04T10:36:39.745Z,37.82
2022-08-04T10:38:04.166Z,38.22
2022-08-04T10:39:41.728Z,38.43
2022-08-04T10:40:48.004Z,38.55
2022-08-04T10:42:13.982Z,38.14
2022-08-04T10:43:57.455Z,37.80
2022-08-04T10:45:19.119Z,37.40
2022-08-04T10:46:34.912Z,37.44
2022-08-04T10:47:53.428Z,37.58
2022-08-04T10:48:57.052Z,37.53
2022-08-04T10:50:02.782Z,37.23
2022-08-04T10:51:05.091Z,37.56
2022-08-04T10:52:34.013Z,37.36
2022-08-04T10:53:38.883Z,37.71
2022-08-04T10:54:59.697Z,37.93
2022-08-04T10:56:10.793Z,38.11
2022-08-04T10:57:21.250Z,37.61
2022-08-04T10:58:46.982Z,37.19
2022-08-04T11:00:03.693Z,37.21
2022-08-04T11:01:59.449Z,37.10
2022-08-04T11:03:15.508Z,37.78
2022-08-04T11:04:27.600Z,37.99
2022-08-04T11:05:44.639Z,38.10
2022-08-04T11:06:48.273Z,38.13
2022-08-04T11:07:57.117Z,38.45
2022-08-04T11:09:02.022Z,38.44
2022-08-04T11:10:06.540Z,38.36
2022-08-04T11:11:11.542Z,38.44
2022-08-04T11:12:21.709Z,38.49
2022-08-04T11:13:30.293Z,38.89
2022-08-04T11:15:10.970Z,38.93
2022-08-04T11:16:32.700Z,38.33
2022-08-04T11:17:44.889Z,38.26
2022-08-04T11:18:57.598Z,38.73
2022-08-04T11:20:34.106Z,38.60
2022-08-04T11:21:39.733Z,37.44
2022-08-04T11:22:55.191Z,38.07
2022-08-04T11:24:05.314Z,38.45
2022-08-04T11:25:19.338Z,38.39
2022-08-04T11:26:30.685Z,38.02
2022-08-04T11:27:44.417Z,38.41
2022-08-04T11:29:03.245Z,37.42
2022-08-04T11:30:08.884Z,37.61
2022-08-04T11:31:23.272Z,37.38
2022-08-04T11:32:40.368Z,37.52
2022-08-04T11:34:10.508Z,38.45
2022-08-04T11:35:22.048Z,38.55
2022-08-04T11:36:36.671Z,38.92
2022-08-04T11:37:50.110Z,38.30
2022-08-04T11:39:11.214Z,38.14
2022-08-04T11:40:27.973Z,38.49
2022-08-04T11:41:48.169Z,38.33
2022-08-04T11:43:16.876Z,38.66
2022-08-04T11:44:48.840Z,38.61
2022-08-04T11:45:55.076Z,38.83
2022-08-04T11:47:02.651Z,38.94
2022-08-04T11:48:11.370Z,39.01
2022-08-04T11:49:56.748Z,38.38
2022-08-04T11:51:06.834Z,38.25
2022-08-04T11:52:12.554Z,38.29
2022-08-04T11:53:36.328Z,38.31
2022-08-04T11:54:41.147Z,38.02
2022-08-04T11:56:06.998Z,38.58
2022-08-04T11:57:11.609Z,38.59
2022-08-04T11:58:14.529Z,38.93
2022-08-04T11:59:19.007Z,38.82
2022-08-04T12:00:22.419Z,38.14
2022-08-04T12:01:27.737Z,38.03
2022-08-04T12:02:49.500Z,38.18
2022-08-04T12:04:37.747Z,38.63
2022-08-04T12:06:10.644Z,38.58
2022-08-04T12:07:41.471Z,39.19
2022-08-04T12:09:05.470Z,39.30
2022-08-04T12:10:41.221Z,38.93
2022-08-04T12:12:11.091Z,38.98
2022-08-04T12:13:35.605Z,39.27
2022-08-04T12:14:45.733Z,38.51
2022-08-04T12:15:58.423Z,38.38
2022-08-04T12:17:04.697Z,38.60
2022-08-04T12:18:42.411Z,39.06
2022-08-04T12:20:03.958Z,39.23
2022-08-04T12:21:15.054Z,39.06
2022-08-04T12:22:28.285Z,38.14
2022-08-04T12:23:38.698Z,37.91
2022-08-04T12:24:46.119Z,37.78
2022-08-04T12:25:52.222Z,38.35
2022-08-04T12:26:58.763Z,38.10
2022-08-04T12:28:07.928Z,38.09
2022-08-04T12:29:12.504Z,38.63
2022-08-04T12:31:02.044Z,37.87
2022-08-04T12:31:47.110Z,38.51
2022-08-04T12:33:03.714Z,38.93
2022-08-04T12:34:39.464Z,38.77
2022-08-04T12:35:58.018Z,37.84
2022-08-04T12:37:45.196Z,37.96
2022-08-04T12:38:55.221Z,38.70
2022-08-04T12:40:27.514Z,38.65
2022-08-04T12:41:32.877Z,38.47
2022-08-04T12:42:59.484Z,37.70
2022-08-04T12:44:37.080Z,38.12
2022-08-04T12:45:41.645Z,38.28
2022-08-04T12:46:46.836Z,38.88
2022-08-04T12:47:52.836Z,38.92
2022-08-04T12:49:01.696Z,38.42
2022-08-04T12:50:06.782Z,38.39
2022-08-04T12:52:06.220Z,38.96
2022-08-04T12:53:03.715Z,38.77
2022-08-04T12:54:10.481Z,38.41
2022-08-04T12:55:13.538Z,38.53
2022-08-04T12:56:23.898Z,38.34
2022-08-04T12:57:27.580Z,38.68
2022-08-04T12:58:42.724Z,38.85
2022-08-04T12:59:48.033Z,39.34
2022-08-04T13:02:07.489Z,39.34
2022-08-04T13:02:47.757Z,38.97
2022-08-04T13:03:58.041Z,39.34
2022-08-04T13:05:05.797Z,38.84
2022-08-04T13:06:11.132Z,39.06
2022-08-04T13:07:21.240Z,38.84
2022-08-04T13:08:24.097Z,39.02
2022-08-04T13:09:33.200Z,39.12
2022-08-04T13:10:42.183Z,39.23
2022-08-04T13:11:52.775Z,38.94
2022-08-04T13:13:00.141Z,38.71
2022-08-04T13:14:24.801Z,38.53
2022-08-04T13:15:28.269Z,38.32
2022-08-04T13:16:32.474Z,38.04
2022-08-04T13:18:02.851Z,38.39
2022-08-04T13:19:08.263Z,37.85
2022-08-04T13:20:14.007Z,37.92
2022-08-04T13:21:49.499Z,38.12
2022-08-04T13:22:46.681Z,38.42
2022-08-04T13:24:10.858Z,38.80
2022-08-04T13:26:41.689Z,38.86
2022-08-04T13:27:03.650Z,38.60
2022-08-04T13:28:14.314Z,38.99
2022-08-04T13:29:17.596Z,39.17
2022-08-04T13:30:22.992Z,38.86
2022-08-04T13:31:35.685Z,38.88
2022-08-04T13:32:38.975Z,39.16
2022-08-04T13:33:45.386Z,39.42
2022-08-04T13:34:52.634Z,39.10
2022-08-04T13:35:56.754Z,38.47
2022-08-04T13:37:00.653Z,38.61
2022-08-04T13:38:08.287Z,38.92
2022-08-04T13:39:22.352Z,39.27
2022-08-04T13:40:26.845Z,39.63
2022-08-04T13:41:36.216Z,39.76
2022-08-04T13:42:47.999Z,39.39
2022-08-04T13:44:18.325Z,38.78
2022-08-04T13:45:22.797Z,38.68
2022-08-04T13:46:28.734Z,38.82
2022-08-04T13:47:38.140Z,38.87
2022-08-04T13:48:43.365Z,39.05
2022-08-04T13:50:12.107Z,38.81
2022-08-04T13:51:18.614Z,38.42
2022-08-04T13:52:25.844Z,38.45
2022-08-04T13:53:31.267Z,38.89
2022-08-04T13:54:42.951Z,38.77
2022-08-04T13:55:47.731Z,38.76
2022-08-04T13:56:55.071Z,38.94
2022-08-04T13:57:59.232Z,39.04
2022-08-04T13:59:05.862Z,39.14
2022-08-04T14:00:10.023Z,38.83
2022-08-04T14:01:20.689Z,39.08
2022-08-04T14:02:52.621Z,39.33
2022-08-04T14:04:20.501Z,38.96
2022-08-04T14:05:28.069Z,38.63
2022-08-04T14:06:43.312Z,38.87
2022-08-04T14:08:10.013Z,38.97
2022-08-04T14:09:17.912Z,39.33
2022-08-04T14:10:20.850Z,39.54
2022-08-04T14:12:09.340Z,39.11
2022-08-04T14:13:07.436Z,39.42
2022-08-04T14:14:26.654Z,39.00
2022-08-04T14:16:02.397Z,39.17
2022-08-04T14:17:38.951Z,38.62
2022-08-04T14:18:41.577Z,38.74
2022-08-04T14:19:46.517Z,38.61
2022-08-04T14:21:05.570Z,38.89
2022-08-04T14:22:07.860Z,39.09
2022-08-04T14:23:16.347Z,39.13
2022-08-04T14:24:29.286Z,39.21
2022-08-04T14:25:35.739Z,39.03
2022-08-04T14:26:38.219Z,38.91
2022-08-04T14:27:42.117Z,38.52
2022-08-04T14:29:09.673Z,38.55
2022-08-04T14:30:23.177Z,38.29
2022-08-04T14:31:30.798Z,38.50
2022-08-04T14:32:33.704Z,38.39
2022-08-04T14:34:02.598Z,38.47
2022-08-04T14:35:11.029Z,38.42
2022-08-04T14:36:15.769Z,38.25
2022-08-04T14:37:20.669Z,38.04
2022-08-04T14:38:23.256Z,37.99
2022-08-04T14:40:08.783Z,38.79
2022-08-04T14:41:21.322Z,38.82
2022-08-04T14:42:54.496Z,39.24
2022-08-04T14:44:00.397Z,39.03
2022-08-04T14:45:05.367Z,38.64
2022-08-04T14:46:07.618Z,38.83
2022-08-04T14:47:13.163Z,38.27
2022-08-04T14:48:19.607Z,38.15
2022-08-04T14:49:22.291Z,38.58
2022-08-04T14:50:42.359Z,38.96
2022-08-04T14:53:03.895Z,39.36
2022-08-04T14:54:09.574Z,39.04
2022-08-04T14:55:24.275Z,39.14
2022-08-04T14:56:46.143Z,38.40
2022-08-04T14:58:34.800Z,37.75
2022-08-04T14:59:13.428Z,38.52
2022-08-04T15:00:30.758Z,38.81
2022-08-04T15:01:34.358Z,38.85
2022-08-04T15:02:38.619Z,38.76
2022-08-04T15:03:50.402Z,39.04
2022-08-04T15:04:55.396Z,39.26
2022-08-04T15:06:02.816Z,39.22
2022-08-04T15:07:10.041Z,39.23
2022-08-04T15:08:14.510Z,39.34
2022-08-04T15:09:17.162Z,39.36
2022-08-04T15:10:20.480Z,39.33
2022-08-04T15:11:24.339Z,39.47
2022-08-04T15:12:26.888Z,39.45
2022-08-04T15:13:31.243Z,39.43
2022-08-04T15:14:36.137Z,39.47
2022-08-04T15:15:41.837Z,39.69
2022-08-04T15:16:54.241Z,39.75
2022-08-04T15:17:57.029Z,39.64
2022-08-04T15:19:00.876Z,39.74
2022-08-04T15:20:03.609Z,39.53
2022-08-04T15:21:07.190Z,38.96
2022-08-04T15:22:26.670Z,39.21
2022-08-04T15:23:31.771Z,39.19
2022-08-04T15:24:41.648Z,39.23
2022-08-04T15:25:51.430Z,39.42
2022-08-04T15:26:57.345Z,39.07
2022-08-04T15:28:01.295Z,39.03
2022-08-04T15:29:16.673Z,38.61
2022-08-04T15:30:19.352Z,38.44
2022-08-04T15:32:05.592Z,38.46
2022-08-04T15:32:56.657Z,38.94
2022-08-04T15:33:59.053Z,39.28
2022-08-04T15:35:09.463Z,39.17
2022-08-04T15:36:36.341Z,38.98
2022-08-04T15:37:57.032Z,38.50
2022-08-04T15:39:11.475Z,38.38
2022-08-04T15:40:32.821Z,38.79
2022-08-04T15:41:46.235Z,39.08
2022-08-04T15:43:08.881Z,39.32
2022-08-04T15:44:30.712Z,39.29
2022-08-04T15:46:02.269Z,39.39
2022-08-04T15:47:13.647Z,39.60
2022-08-04T15:48:20.000Z,39.67
2022-08-04T15:49:24.476Z,39.63
2022-08-04T15:50:27.986Z,39.31
2022-08-04T15:51:32.806Z,39.05
2022-08-04T15:53:10.743Z,38.86
2022-08-04T15:54:16.832Z,38.84
2022-08-04T15:55:37.250Z,38.45
2022-08-04T15:56:48.465Z,38.65
2022-08-04T15:58:12.397Z,38.49
2022-08-04T15:59:16.009Z,38.73
2022-08-04T16:00:26.857Z,38.64
2022-08-04T16:01:29.443Z,38.85
2022-08-04T16:02:35.299Z,38.59
2022-08-04T16:03:59.616Z,38.80
2022-08-04T16:05:18.436Z,38.77
2022-08-04T16:06:22.700Z,38.86
2022-08-04T16:08:08.499Z,39.03
2022-08-04T16:09:22.535Z,37.79